sensor_id;sensor_type;location;lat;lon;timestamp;pressure;altitude;pressure_sealevel;temperature;humidity
51468;BME280;37545;45.302;-122.946;2023-05-27T00:01:23;100356.41;;;32.62;26.35
51468;BME280;37545;45.302;-122.946;2023-05-27T00:03:53;100356.47;;;32.48;25.38
51468;BME280;37545;45.302;-122.946;2023-05-27T00:06:22;100363.41;;;32.38;28.13
51468;BME280;37545;45.302;-122.946;2023-05-27T00:08:51;100358.16;;;32.23;26.33
51468;BME280;37545;45.302;-122.946;2023-05-27T00:11:20;100351.38;;;32.18;26.16
51468;BME280;37545;45.302;-122.946;2023-05-27T00:13:49;100355.94;;;32.03;26.86
51468;BME280;37545;45.302;-122.946;2023-05-27T00:16:17;100349.44;;;31.92;26.99
51468;BME280;37545;45.302;-122.946;2023-05-27T00:18:46;100347.63;;;31.93;28.02
51468;BME280;37545;45.302;-122.946;2023-05-27T00:21:17;100342.75;;;32.00;28.13
51468;BME280;37545;45.302;-122.946;2023-05-27T00:23:46;100348.31;;;31.97;27.42
51468;BME280;37545;45.302;-122.946;2023-05-27T00:26:15;100343.88;;;32.10;27.33
51468;BME280;37545;45.302;-122.946;2023-05-27T00:28:44;100345.06;;;32.19;27.03
51468;BME280;37545;45.302;-122.946;2023-05-27T00:31:12;100343.78;;;32.24;27.51
51468;BME280;37545;45.302;-122.946;2023-05-27T00:33:41;100346.38;;;32.26;27.42
51468;BME280;37545;45.302;-122.946;2023-05-27T00:36:10;100338.22;;;32.27;26.66
51468;BME280;37545;45.302;-122.946;2023-05-27T00:38:41;100335.53;;;32.27;26.69
51468;BME280;37545;45.302;-122.946;2023-05-27T00:41:11;100339.41;;;32.23;26.08
51468;BME280;37545;45.302;-122.946;2023-05-27T00:43:39;100341.75;;;32.15;26.46
51468;BME280;37545;45.302;-122.946;2023-05-27T00:46:08;100338.38;;;31.99;27.14
51468;BME280;37545;45.302;-122.946;2023-05-27T00:48:37;100337.84;;;32.06;26.26
51468;BME280;37545;45.302;-122.946;2023-05-27T00:51:06;100338.91;;;32.04;26.48
51468;BME280;37545;45.302;-122.946;2023-05-27T00:53:38;100342.34;;;32.06;27.63
51468;BME280;37545;45.302;-122.946;2023-05-27T00:56:10;100333.66;;;32.02;27.33
51468;BME280;37545;45.302;-122.946;2023-05-27T00:58:39;100337.22;;;32.03;26.45
51468;BME280;37545;45.302;-122.946;2023-05-27T01:01:08;100340.00;;;32.01;26.90
51468;BME280;37545;45.302;-122.946;2023-05-27T01:03:36;100334.72;;;32.00;27.33
51468;BME280;37545;45.302;-122.946;2023-05-27T01:06:14;100334.84;;;31.98;28.08
51468;BME280;37545;45.302;-122.946;2023-05-27T01:08:54;100341.69;;;32.02;29.51
51468;BME280;37545;45.302;-122.946;2023-05-27T01:11:34;100342.56;;;32.03;28.08
51468;BME280;37545;45.302;-122.946;2023-05-27T01:14:10;100333.78;;;32.01;25.44
51468;BME280;37545;45.302;-122.946;2023-05-27T01:16:40;100332.06;;;32.00;25.45
51468;BME280;37545;45.302;-122.946;2023-05-27T01:19:13;100329.59;;;31.97;26.47
51468;BME280;37545;45.302;-122.946;2023-05-27T01:21:48;100336.81;;;31.94;26.42
51468;BME280;37545;45.302;-122.946;2023-05-27T01:24:20;100333.91;;;31.85;26.12
51468;BME280;37545;45.302;-122.946;2023-05-27T01:26:48;100334.91;;;31.69;26.63
51468;BME280;37545;45.302;-122.946;2023-05-27T01:29:17;100336.97;;;31.51;27.16
51468;BME280;37545;45.302;-122.946;2023-05-27T01:31:50;100347.09;;;31.32;27.16
51468;BME280;37545;45.302;-122.946;2023-05-27T01:34:25;100344.25;;;31.21;27.33
51468;BME280;37545;45.302;-122.946;2023-05-27T01:36:59;100344.63;;;31.15;27.21
51468;BME280;37545;45.302;-122.946;2023-05-27T01:39:32;100349.97;;;31.15;27.10
51468;BME280;37545;45.302;-122.946;2023-05-27T01:42:02;100350.84;;;31.15;25.57
51468;BME280;37545;45.302;-122.946;2023-05-27T01:44:32;100349.97;;;31.15;26.17
51468;BME280;37545;45.302;-122.946;2023-05-27T01:47:01;100349.22;;;31.13;26.68
51468;BME280;37545;45.302;-122.946;2023-05-27T01:49:30;100354.00;;;31.07;25.93
51468;BME280;37545;45.302;-122.946;2023-05-27T01:51:59;100355.06;;;31.05;27.16
51468;BME280;37545;45.302;-122.946;2023-05-27T01:54:27;100353.72;;;30.98;26.55
51468;BME280;37545;45.302;-122.946;2023-05-27T01:56:57;100356.19;;;30.86;25.92
51468;BME280;37545;45.302;-122.946;2023-05-27T01:59:26;100368.63;;;30.72;25.85
51468;BME280;37545;45.302;-122.946;2023-05-27T02:01:54;100377.97;;;30.64;25.14
51468;BME280;37545;45.302;-122.946;2023-05-27T02:04:23;100365.16;;;30.55;25.75
51468;BME280;37545;45.302;-122.946;2023-05-27T02:06:52;100373.22;;;30.39;26.62
51468;BME280;37545;45.302;-122.946;2023-05-27T02:09:20;100372.16;;;30.27;26.80
51468;BME280;37545;45.302;-122.946;2023-05-27T02:11:49;100380.84;;;30.15;27.21
51468;BME280;37545;45.302;-122.946;2023-05-27T02:14:19;100379.84;;;30.02;26.40
51468;BME280;37545;45.302;-122.946;2023-05-27T02:16:48;100377.63;;;29.94;27.04
51468;BME280;37545;45.302;-122.946;2023-05-27T02:19:17;100376.34;;;29.85;26.98
51468;BME280;37545;45.302;-122.946;2023-05-27T02:21:46;100384.84;;;29.76;26.98
51468;BME280;37545;45.302;-122.946;2023-05-27T02:24:15;100392.50;;;29.67;27.61
51468;BME280;37545;45.302;-122.946;2023-05-27T02:26:43;100392.75;;;29.62;26.84
51468;BME280;37545;45.302;-122.946;2023-05-27T02:29:12;100392.91;;;29.59;28.38
51468;BME280;37545;45.302;-122.946;2023-05-27T02:31:42;100393.94;;;29.56;28.57
51468;BME280;37545;45.302;-122.946;2023-05-27T02:34:11;100395.16;;;29.51;27.42
51468;BME280;37545;45.302;-122.946;2023-05-27T02:36:39;100395.66;;;29.41;26.82
51468;BME280;37545;45.302;-122.946;2023-05-27T02:39:09;100395.69;;;29.24;27.29
51468;BME280;37545;45.302;-122.946;2023-05-27T02:41:38;100406.25;;;29.10;26.20
51468;BME280;37545;45.302;-122.946;2023-05-27T02:44:06;100403.56;;;28.92;26.81
51468;BME280;37545;45.302;-122.946;2023-05-27T02:46:44;100407.81;;;28.79;27.34
51468;BME280;37545;45.302;-122.946;2023-05-27T02:49:12;100404.84;;;28.68;27.70
51468;BME280;37545;45.302;-122.946;2023-05-27T02:51:43;100414.88;;;28.63;27.14
51468;BME280;37545;45.302;-122.946;2023-05-27T02:54:12;100410.97;;;28.52;28.19
51468;BME280;37545;45.302;-122.946;2023-05-27T02:56:41;100419.38;;;28.43;28.26
51468;BME280;37545;45.302;-122.946;2023-05-27T02:59:09;100425.16;;;28.34;28.83
51468;BME280;37545;45.302;-122.946;2023-05-27T03:01:38;100427.09;;;28.30;29.40
51468;BME280;37545;45.302;-122.946;2023-05-27T03:04:09;100424.72;;;28.24;28.67
51468;BME280;37545;45.302;-122.946;2023-05-27T03:06:37;100430.72;;;28.10;28.29
51468;BME280;37545;45.302;-122.946;2023-05-27T03:09:06;100436.50;;;28.01;28.95
51468;BME280;37545;45.302;-122.946;2023-05-27T03:11:35;100439.75;;;27.89;29.06
51468;BME280;37545;45.302;-122.946;2023-05-27T03:14:04;100446.38;;;27.78;30.18
51468;BME280;37545;45.302;-122.946;2023-05-27T03:16:32;100455.59;;;27.71;29.82
51468;BME280;37545;45.302;-122.946;2023-05-27T03:19:02;100463.13;;;27.62;29.59
51468;BME280;37545;45.302;-122.946;2023-05-27T03:21:32;100468.28;;;27.46;30.81
51468;BME280;37545;45.302;-122.946;2023-05-27T03:24:01;100472.38;;;27.34;33.44
51468;BME280;37545;45.302;-122.946;2023-05-27T03:26:30;100479.16;;;27.21;30.59
51468;BME280;37545;45.302;-122.946;2023-05-27T03:28:58;100483.13;;;27.10;30.89
51468;BME280;37545;45.302;-122.946;2023-05-27T03:31:27;100488.69;;;27.04;33.11
51468;BME280;37545;45.302;-122.946;2023-05-27T03:33:56;100489.13;;;26.93;31.43
51468;BME280;37545;45.302;-122.946;2023-05-27T03:36:24;100497.63;;;26.81;32.17
51468;BME280;37545;45.302;-122.946;2023-05-27T03:38:55;100503.31;;;26.72;31.71
51468;BME280;37545;45.302;-122.946;2023-05-27T03:41:23;100509.03;;;26.63;31.95
51468;BME280;37545;45.302;-122.946;2023-05-27T03:43:53;100494.63;;;26.46;30.96
51468;BME280;37545;45.302;-122.946;2023-05-27T03:46:22;100515.03;;;26.44;32.32
51468;BME280;37545;45.302;-122.946;2023-05-27T03:48:51;100521.38;;;26.40;31.67
51468;BME280;37545;45.302;-122.946;2023-05-27T03:51:20;100524.22;;;26.36;31.63
51468;BME280;37545;45.302;-122.946;2023-05-27T03:53:49;100521.75;;;26.31;31.68
51468;BME280;37545;45.302;-122.946;2023-05-27T03:56:19;100522.78;;;26.27;31.70
51468;BME280;37545;45.302;-122.946;2023-05-27T03:58:50;100532.72;;;26.22;32.24
51468;BME280;37545;45.302;-122.946;2023-05-27T04:01:18;100538.25;;;26.16;32.89
51468;BME280;37545;45.302;-122.946;2023-05-27T04:03:48;100546.47;;;26.09;31.70
51468;BME280;37545;45.302;-122.946;2023-05-27T04:06:16;100550.19;;;26.04;32.36
51468;BME280;37545;45.302;-122.946;2023-05-27T04:08:45;100553.97;;;25.98;32.13
51468;BME280;37545;45.302;-122.946;2023-05-27T04:11:14;100571.75;;;25.95;35.08
51468;BME280;37545;45.302;-122.946;2023-05-27T04:13:44;100566.72;;;25.88;37.20
51468;BME280;37545;45.302;-122.946;2023-05-27T04:16:13;100582.78;;;25.82;35.47
51468;BME280;37545;45.302;-122.946;2023-05-27T04:18:41;100578.63;;;25.75;35.25
51468;BME280;37545;45.302;-122.946;2023-05-27T04:21:15;100581.53;;;25.67;33.98
51468;BME280;37545;45.302;-122.946;2023-05-27T04:23:44;100586.16;;;25.62;33.66
51468;BME280;37545;45.302;-122.946;2023-05-27T04:26:12;100602.16;;;25.59;34.69
51468;BME280;37545;45.302;-122.946;2023-05-27T04:28:43;100596.91;;;25.58;36.59
51468;BME280;37545;45.302;-122.946;2023-05-27T04:31:12;100597.19;;;25.50;35.86
51468;BME280;37545;45.302;-122.946;2023-05-27T04:33:42;100600.00;;;25.45;34.71
51468;BME280;37545;45.302;-122.946;2023-05-27T04:36:10;100609.88;;;25.40;34.82
51468;BME280;37545;45.302;-122.946;2023-05-27T04:38:43;100612.75;;;25.34;35.93
51468;BME280;37545;45.302;-122.946;2023-05-27T04:41:13;100614.88;;;25.23;34.68
51468;BME280;37545;45.302;-122.946;2023-05-27T04:43:43;100623.16;;;25.12;32.56
51468;BME280;37545;45.302;-122.946;2023-05-27T04:46:13;100621.72;;;25.02;32.11
51468;BME280;37545;45.302;-122.946;2023-05-27T04:48:41;100621.91;;;24.96;35.90
51468;BME280;37545;45.302;-122.946;2023-05-27T04:51:11;100631.78;;;24.91;36.10
51468;BME280;37545;45.302;-122.946;2023-05-27T04:53:42;100631.94;;;24.86;35.59
51468;BME280;37545;45.302;-122.946;2023-05-27T04:56:11;100632.16;;;24.78;34.83
51468;BME280;37545;45.302;-122.946;2023-05-27T04:58:43;100643.97;;;24.68;36.75
51468;BME280;37545;45.302;-122.946;2023-05-27T05:01:15;100651.47;;;24.54;34.00
51468;BME280;37545;45.302;-122.946;2023-05-27T05:03:48;100640.38;;;24.39;33.88
51468;BME280;37545;45.302;-122.946;2023-05-27T05:06:38;100645.03;;;24.31;33.35
51468;BME280;37545;45.302;-122.946;2023-05-27T05:09:07;100654.88;;;24.26;38.32
51468;BME280;37545;45.302;-122.946;2023-05-27T05:11:36;100663.84;;;24.20;36.49
51468;BME280;37545;45.302;-122.946;2023-05-27T05:14:06;100661.38;;;24.14;36.25
51468;BME280;37545;45.302;-122.946;2023-05-27T05:16:34;100664.13;;;24.10;36.00
51468;BME280;37545;45.302;-122.946;2023-05-27T05:19:03;100661.72;;;24.02;36.22
51468;BME280;37545;45.302;-122.946;2023-05-27T05:21:31;100668.13;;;23.93;35.45
51468;BME280;37545;45.302;-122.946;2023-05-27T05:24:00;100663.06;;;23.86;35.23
51468;BME280;37545;45.302;-122.946;2023-05-27T05:26:30;100665.91;;;23.78;35.87
51468;BME280;37545;45.302;-122.946;2023-05-27T05:28:58;100673.09;;;23.71;35.25
51468;BME280;37545;45.302;-122.946;2023-05-27T05:31:28;100666.19;;;23.66;35.10
51468;BME280;37545;45.302;-122.946;2023-05-27T05:33:57;100668.94;;;23.61;33.81
51468;BME280;37545;45.302;-122.946;2023-05-27T05:36:33;100675.25;;;23.55;33.02
51468;BME280;37545;45.302;-122.946;2023-05-27T05:39:02;100668.41;;;23.48;33.41
51468;BME280;37545;45.302;-122.946;2023-05-27T05:41:32;100671.16;;;23.44;32.62
51468;BME280;37545;45.302;-122.946;2023-05-27T05:44:00;100665.16;;;23.37;32.77
51468;BME280;37545;45.302;-122.946;2023-05-27T05:46:30;100670.59;;;23.31;32.89
51468;BME280;37545;45.302;-122.946;2023-05-27T05:48:59;100677.75;;;23.26;33.60
51468;BME280;37545;45.302;-122.946;2023-05-27T05:51:27;100682.34;;;23.17;33.31
51468;BME280;37545;45.302;-122.946;2023-05-27T05:53:58;100676.41;;;23.09;33.52
51468;BME280;37545;45.302;-122.946;2023-05-27T05:56:26;100680.97;;;23.01;33.74
51468;BME280;37545;45.302;-122.946;2023-05-27T05:58:55;100683.78;;;22.92;33.77
51468;BME280;37545;45.302;-122.946;2023-05-27T06:01:24;100682.22;;;22.83;34.83
51468;BME280;37545;45.302;-122.946;2023-05-27T06:03:55;100692.09;;;22.73;34.78
51468;BME280;37545;45.302;-122.946;2023-05-27T06:06:24;100684.41;;;22.64;34.38
51468;BME280;37545;45.302;-122.946;2023-05-27T06:08:53;100696.81;;;22.59;35.22
51468;BME280;37545;45.302;-122.946;2023-05-27T06:11:21;100697.03;;;22.48;34.99
51468;BME280;37545;45.302;-122.946;2023-05-27T06:13:50;100690.25;;;22.36;36.04
51468;BME280;37545;45.302;-122.946;2023-05-27T06:16:18;100701.06;;;22.24;35.96
51468;BME280;37545;45.302;-122.946;2023-05-27T06:18:47;100689.91;;;22.08;35.85
51468;BME280;37545;45.302;-122.946;2023-05-27T06:21:17;100699.72;;;21.99;35.58
51468;BME280;37545;45.302;-122.946;2023-05-27T06:23:46;100701.69;;;21.87;36.25
51468;BME280;37545;45.302;-122.946;2023-05-27T06:26:14;100698.34;;;21.79;36.65
51468;BME280;37545;45.302;-122.946;2023-05-27T06:28:43;100694.91;;;21.74;36.53
51468;BME280;37545;45.302;-122.946;2023-05-27T06:31:12;100686.19;;;21.70;36.48
51468;BME280;37545;45.302;-122.946;2023-05-27T06:33:42;100695.94;;;21.65;35.97
51468;BME280;37545;45.302;-122.946;2023-05-27T06:36:10;100691.63;;;21.61;35.92
51468;BME280;37545;45.302;-122.946;2023-05-27T06:38:40;100681.94;;;21.63;35.78
51468;BME280;37545;45.302;-122.946;2023-05-27T06:41:09;100684.53;;;21.65;36.04
51468;BME280;37545;45.302;-122.946;2023-05-27T06:43:37;100679.31;;;21.62;36.29
51468;BME280;37545;45.302;-122.946;2023-05-27T06:46:06;100677.59;;;21.61;36.66
51468;BME280;37545;45.302;-122.946;2023-05-27T06:48:35;100682.03;;;21.57;36.90
51468;BME280;37545;45.302;-122.946;2023-05-27T06:51:05;100674.19;;;21.54;37.88
51468;BME280;37545;45.302;-122.946;2023-05-27T06:53:34;100666.38;;;21.49;37.78
51468;BME280;37545;45.302;-122.946;2023-05-27T06:56:05;100668.16;;;21.47;38.35
51468;BME280;37545;45.302;-122.946;2023-05-27T06:58:34;100670.84;;;21.44;38.55
51468;BME280;37545;45.302;-122.946;2023-05-27T07:01:02;100678.94;;;21.30;43.24
51468;BME280;37545;45.302;-122.946;2023-05-27T07:03:31;100676.69;;;21.04;44.84
51468;BME280;37545;45.302;-122.946;2023-05-27T07:05:59;100683.97;;;20.87;44.96
51468;BME280;37545;45.302;-122.946;2023-05-27T07:08:28;100695.50;;;20.78;45.27
51468;BME280;37545;45.302;-122.946;2023-05-27T07:10:57;100697.38;;;20.68;45.69
51468;BME280;37545;45.302;-122.946;2023-05-27T07:13:28;100701.91;;;20.57;46.21
51468;BME280;37545;45.302;-122.946;2023-05-27T07:15:56;100702.97;;;20.38;46.35
51468;BME280;37545;45.302;-122.946;2023-05-27T07:18:25;100699.53;;;20.31;46.38
51468;BME280;37545;45.302;-122.946;2023-05-27T07:20:54;100698.81;;;20.18;47.21
51468;BME280;37545;45.302;-122.946;2023-05-27T07:23:23;100694.59;;;20.02;47.23
51468;BME280;37545;45.302;-122.946;2023-05-27T07:25:51;100698.16;;;19.95;48.07
51468;BME280;37545;45.302;-122.946;2023-05-27T07:28:20;100694.72;;;19.90;47.90
51468;BME280;37545;45.302;-122.946;2023-05-27T07:30:50;100700.91;;;19.84;48.31
51468;BME280;37545;45.302;-122.946;2023-05-27T07:33:18;100706.22;;;19.78;47.31
51468;BME280;37545;45.302;-122.946;2023-05-27T07:35:47;100699.25;;;19.74;46.76
51468;BME280;37545;45.302;-122.946;2023-05-27T07:38:18;100701.91;;;19.66;44.96
51468;BME280;37545;45.302;-122.946;2023-05-27T07:40:46;100699.31;;;19.64;47.94
51468;BME280;37545;45.302;-122.946;2023-05-27T07:43:15;100701.97;;;19.58;47.83
51468;BME280;37545;45.302;-122.946;2023-05-27T07:45:44;100704.63;;;19.54;45.60
51468;BME280;37545;45.302;-122.946;2023-05-27T07:48:14;100702.94;;;19.46;43.70
51468;BME280;37545;45.302;-122.946;2023-05-27T07:50:43;100703.84;;;19.45;43.78
51468;BME280;37545;45.302;-122.946;2023-05-27T07:53:11;100700.34;;;19.45;44.85
51468;BME280;37545;45.302;-122.946;2023-05-27T07:55:40;100696.88;;;19.43;44.44
51468;BME280;37545;45.302;-122.946;2023-05-27T07:58:08;100701.25;;;19.39;49.34
51468;BME280;37545;45.302;-122.946;2023-05-27T08:00:37;100694.31;;;19.32;48.73
51468;BME280;37545;45.302;-122.946;2023-05-27T08:03:10;100696.09;;;19.27;45.18
51468;BME280;37545;45.302;-122.946;2023-05-27T08:05:40;100699.63;;;19.23;44.57
51468;BME280;37545;45.302;-122.946;2023-05-27T08:08:09;100696.16;;;19.21;44.17
51468;BME280;37545;45.302;-122.946;2023-05-27T08:10:37;100694.41;;;19.20;44.94
51468;BME280;37545;45.302;-122.946;2023-05-27T08:13:08;100700.53;;;19.19;44.56
51468;BME280;37545;45.302;-122.946;2023-05-27T08:15:37;100703.19;;;19.16;44.65
51468;BME280;37545;45.302;-122.946;2023-05-27T08:18:05;100703.22;;;19.11;45.27
51468;BME280;37545;45.302;-122.946;2023-05-27T08:20:34;100709.34;;;19.09;46.16
51468;BME280;37545;45.302;-122.946;2023-05-27T08:23:04;100708.50;;;19.07;48.62
51468;BME280;37545;45.302;-122.946;2023-05-27T08:25:33;100709.38;;;19.01;49.69
51468;BME280;37545;45.302;-122.946;2023-05-27T08:28:01;100708.53;;;18.96;50.74
51468;BME280;37545;45.302;-122.946;2023-05-27T08:30:30;100718.25;;;18.81;53.28
51468;BME280;37545;45.302;-122.946;2023-05-27T08:32:59;100730.56;;;18.58;55.99
51468;BME280;37545;45.302;-122.946;2023-05-27T08:35:27;100727.16;;;18.24;56.92
51468;BME280;37545;45.302;-122.946;2023-05-27T08:37:58;100740.28;;;17.94;58.59
51468;BME280;37545;45.302;-122.946;2023-05-27T08:40:28;100736.78;;;17.80;59.25
51468;BME280;37545;45.302;-122.946;2023-05-27T08:42:57;100736.78;;;17.68;59.67
51468;BME280;37545;45.302;-122.946;2023-05-27T08:45:26;100731.53;;;17.54;60.58
51468;BME280;37545;45.302;-122.946;2023-05-27T08:47:57;100738.53;;;17.46;61.38
51468;BME280;37545;45.302;-122.946;2023-05-27T08:50:26;100748.09;;;17.33;63.49
51468;BME280;37545;45.302;-122.946;2023-05-27T08:52:54;100745.47;;;17.21;63.47
51468;BME280;37545;45.302;-122.946;2023-05-27T08:55:23;100750.66;;;17.10;64.54
51468;BME280;37545;45.302;-122.946;2023-05-27T08:57:55;100754.97;;;17.02;64.83
51468;BME280;37545;45.302;-122.946;2023-05-27T09:00:25;100756.69;;;16.92;64.71
51468;BME280;37545;45.302;-122.946;2023-05-27T09:02:54;100746.19;;;16.81;65.56
51468;BME280;37545;45.302;-122.946;2023-05-27T09:05:26;100761.88;;;16.83;65.98
51468;BME280;37545;45.302;-122.946;2023-05-27T09:07:54;100753.13;;;16.74;65.95
51468;BME280;37545;45.302;-122.946;2023-05-27T09:10:36;100760.09;;;16.72;65.69
51468;BME280;37545;45.302;-122.946;2023-05-27T09:13:08;100751.38;;;16.70;66.14
51468;BME280;37545;45.302;-122.946;2023-05-27T09:15:37;100753.09;;;16.68;66.04
51468;BME280;37545;45.302;-122.946;2023-05-27T09:18:06;100762.69;;;16.68;65.97
51468;BME280;37545;45.302;-122.946;2023-05-27T09:20:35;100754.81;;;16.65;66.12
51468;BME280;37545;45.302;-122.946;2023-05-27T09:23:05;100760.03;;;16.59;66.66
51468;BME280;37545;45.302;-122.946;2023-05-27T09:25:35;100759.09;;;16.53;67.97
51468;BME280;37545;45.302;-122.946;2023-05-27T09:28:07;100760.81;;;16.45;68.38
51468;BME280;37545;45.302;-122.946;2023-05-27T09:30:36;100765.16;;;16.40;67.80
51468;BME280;37545;45.302;-122.946;2023-05-27T09:33:04;100759.03;;;16.37;69.01
51468;BME280;37545;45.302;-122.946;2023-05-27T09:35:38;100762.44;;;16.28;68.85
51468;BME280;37545;45.302;-122.946;2023-05-27T09:38:13;100770.28;;;16.29;69.25
51468;BME280;37545;45.302;-122.946;2023-05-27T09:40:44;100767.66;;;16.28;69.34
51468;BME280;37545;45.302;-122.946;2023-05-27T09:43:15;100765.94;;;16.27;69.25
51468;BME280;37545;45.302;-122.946;2023-05-27T09:45:44;100772.00;;;16.24;69.21
51468;BME280;37545;45.302;-122.946;2023-05-27T09:48:19;100770.25;;;16.22;69.33
51468;BME280;37545;45.302;-122.946;2023-05-27T09:50:49;100778.06;;;16.19;69.13
51468;BME280;37545;45.302;-122.946;2023-05-27T09:53:20;100775.41;;;16.14;69.33
51468;BME280;37545;45.302;-122.946;2023-05-27T09:55:55;100786.69;;;16.10;69.94
51468;BME280;37545;45.302;-122.946;2023-05-27T09:58:25;100781.44;;;16.05;70.82
51468;BME280;37545;45.302;-122.946;2023-05-27T10:00:55;100783.97;;;15.96;71.88
51468;BME280;37545;45.302;-122.946;2023-05-27T10:03:28;100781.34;;;15.90;71.91
51468;BME280;37545;45.302;-122.946;2023-05-27T10:05:59;100789.97;;;15.84;72.60
51468;BME280;37545;45.302;-122.946;2023-05-27T10:08:29;100786.47;;;15.81;72.29
51468;BME280;37545;45.302;-122.946;2023-05-27T10:10:57;100789.94;;;15.80;73.24
51468;BME280;37545;45.302;-122.946;2023-05-27T10:13:28;100788.19;;;15.79;72.74
51468;BME280;37545;45.302;-122.946;2023-05-27T10:15:59;100786.41;;;15.75;72.45
51468;BME280;37545;45.302;-122.946;2023-05-27T10:18:28;100790.75;;;15.73;73.52
51468;BME280;37545;45.302;-122.946;2023-05-27T10:20:57;100797.69;;;15.70;73.55
51468;BME280;37545;45.302;-122.946;2023-05-27T10:23:27;100795.91;;;15.69;72.88
51468;BME280;37545;45.302;-122.946;2023-05-27T10:26:01;100798.47;;;15.66;72.96
51468;BME280;37545;45.302;-122.946;2023-05-27T10:28:32;100794.09;;;15.62;73.15
51468;BME280;37545;45.302;-122.946;2023-05-27T10:31:06;100804.50;;;15.61;73.22
51468;BME280;37545;45.302;-122.946;2023-05-27T10:33:37;100798.38;;;15.57;73.39
51468;BME280;37545;45.302;-122.946;2023-05-27T10:36:10;100812.19;;;15.47;74.76
51468;BME280;37545;45.302;-122.946;2023-05-27T10:38:40;100819.03;;;15.36;76.39
51468;BME280;37545;45.302;-122.946;2023-05-27T10:41:09;100817.22;;;15.28;76.34
51468;BME280;37545;45.302;-122.946;2023-05-27T10:43:42;100823.28;;;15.27;76.10
51468;BME280;37545;45.302;-122.946;2023-05-27T10:46:12;100824.97;;;15.25;77.75
51468;BME280;37545;45.302;-122.946;2023-05-27T10:48:41;100831.84;;;15.17;78.08
51468;BME280;37545;45.302;-122.946;2023-05-27T10:51:10;100821.34;;;15.11;78.36
51468;BME280;37545;45.302;-122.946;2023-05-27T10:53:38;100834.38;;;15.10;78.43
51468;BME280;37545;45.302;-122.946;2023-05-27T10:56:07;100840.47;;;15.12;78.18
51468;BME280;37545;45.302;-122.946;2023-05-27T10:58:37;100842.22;;;15.13;78.66
51468;BME280;37545;45.302;-122.946;2023-05-27T11:01:10;100840.41;;;15.07;80.52
51468;BME280;37545;45.302;-122.946;2023-05-27T11:03:43;100849.03;;;15.01;79.99
51468;BME280;37545;45.302;-122.946;2023-05-27T11:06:13;100841.19;;;15.00;79.17
51468;BME280;37545;45.302;-122.946;2023-05-27T11:08:43;100841.19;;;14.98;79.73
51468;BME280;37545;45.302;-122.946;2023-05-27T11:11:12;100848.13;;;14.99;80.20
51468;BME280;37545;45.302;-122.946;2023-05-27T11:13:44;100847.28;;;14.99;80.54
51468;BME280;37545;45.302;-122.946;2023-05-27T11:16:15;100849.00;;;14.98;80.20
51468;BME280;37545;45.302;-122.946;2023-05-27T11:18:45;100851.63;;;14.98;79.33
51468;BME280;37545;45.302;-122.946;2023-05-27T11:21:15;100855.03;;;14.94;81.50
51468;BME280;37545;45.302;-122.946;2023-05-27T11:23:45;100857.53;;;14.88;80.99
51468;BME280;37545;45.302;-122.946;2023-05-27T11:26:16;100865.38;;;14.90;80.54
51468;BME280;37545;45.302;-122.946;2023-05-27T11:28:49;100864.50;;;14.91;81.10
51468;BME280;37545;45.302;-122.946;2023-05-27T11:31:20;100872.34;;;14.91;81.36
51468;BME280;37545;45.302;-122.946;2023-05-27T11:33:54;100879.31;;;14.92;80.55
51468;BME280;37545;45.302;-122.946;2023-05-27T11:36:25;100883.69;;;14.94;80.36
51468;BME280;37545;45.302;-122.946;2023-05-27T11:38:55;100886.25;;;14.93;80.54
51468;BME280;37545;45.302;-122.946;2023-05-27T11:41:25;100879.34;;;14.95;80.37
51468;BME280;37545;45.302;-122.946;2023-05-27T11:43:56;100891.53;;;14.96;80.08
51468;BME280;37545;45.302;-122.946;2023-05-27T11:46:34;100881.97;;;14.96;80.65
51468;BME280;37545;45.302;-122.946;2023-05-27T11:49:06;100882.84;;;14.97;80.32
51468;BME280;37545;45.302;-122.946;2023-05-27T11:51:38;100889.72;;;14.92;80.88
51468;BME280;37545;45.302;-122.946;2023-05-27T11:54:07;100890.66;;;14.97;80.42
51468;BME280;37545;45.302;-122.946;2023-05-27T11:56:36;100886.31;;;14.96;80.69
51468;BME280;37545;45.302;-122.946;2023-05-27T11:59:04;100895.00;;;14.96;80.72
51468;BME280;37545;45.302;-122.946;2023-05-27T12:01:37;100895.78;;;14.91;81.70
51468;BME280;37545;45.302;-122.946;2023-05-27T12:04:12;100900.03;;;14.82;82.18
51468;BME280;37545;45.302;-122.946;2023-05-27T12:06:41;100898.19;;;14.75;83.22
51468;BME280;37545;45.302;-122.946;2023-05-27T12:09:10;100901.59;;;14.71;82.79
51468;BME280;37545;45.302;-122.946;2023-05-27T12:11:41;100907.69;;;14.73;82.49
51468;BME280;37545;45.302;-122.946;2023-05-27T12:14:10;100901.63;;;14.74;82.02
51468;BME280;37545;45.302;-122.946;2023-05-27T12:16:41;100903.44;;;14.78;82.21
51468;BME280;37545;45.302;-122.946;2023-05-27T12:19:09;100908.69;;;14.81;82.51
51468;BME280;37545;45.302;-122.946;2023-05-27T12:21:41;100905.25;;;14.82;82.07
51468;BME280;37545;45.302;-122.946;2023-05-27T12:24:10;100915.72;;;14.87;82.00
51468;BME280;37545;45.302;-122.946;2023-05-27T12:26:38;100907.00;;;14.86;83.62
51468;BME280;37545;45.302;-122.946;2023-05-27T12:29:08;100908.69;;;14.81;84.05
51468;BME280;37545;45.302;-122.946;2023-05-27T12:31:36;100913.03;;;14.81;83.17
51468;BME280;37545;45.302;-122.946;2023-05-27T12:34:07;100916.50;;;14.81;82.39